sensor_id;sensor_type;location;lat;lon;timestamp;temperature;humidity
5055;DHT22;13829;48.990;8.346;2022-09-01T00:01:44;16.50;99.90
5055;DHT22;13829;48.990;8.346;2022-09-01T00:04:16;16.30;99.90
5055;DHT22;13829;48.990;8.346;2022-09-01T00:06:45;16.30;99.90
5055;DHT22;13829;48.990;8.346;2022-09-01T00:09:15;16.30;99.90
5055;DHT22;13829;48.990;8.346;2022-09-01T00:11:48;16.40;99.90
5055;DHT22;13829;48.990;8.346;2022-09-01T00:14:17;16.30;99.90
5055;DHT22;13829;48.990;8.346;2022-09-01T00:16:46;16.20;99.90
5055;DHT22;13829;48.990;8.346;2022-09-01T00:19:13;16.20;99.90
5055;DHT22;13829;48.990;8.346;2022-09-01T00:21:43;16.20;99.90
5055;DHT22;13829;48.990;8.346;2022-09-01T00:24:12;16.20;99.90
5055;DHT22;13829;48.990;8.346;2022-09-01T00:26:42;16.20;99.90
5055;DHT22;13829;48.990;8.346;2022-09-01T00:29:11;16.30;99.90
5055;DHT22;13829;48.990;8.346;2022-09-01T00:31:39;16.40;99.90
5055;DHT22;13829;48.990;8.346;2022-09-01T00:34:06;16.40;99.90
5055;DHT22;13829;48.990;8.346;2022-09-01T00:36:33;16.60;99.90
5055;DHT22;13829;48.990;8.346;2022-09-01T00:39:00;16.50;99.90
5055;DHT22;13829;48.990;8.346;2022-09-01T00:41:29;16.50;99.90
5055;DHT22;13829;48.990;8.346;2022-09-01T00:44:01;16.50;99.90
5055;DHT22;13829;48.990;8.346;2022-09-01T00:46:32;16.50;99.90
5055;DHT22;13829;48.990;8.346;2022-09-01T00:49:05;16.30;99.90
5055;DHT22;13829;48.990;8.346;2022-09-01T00:51:36;16.50;99.90
5055;DHT22;13829;48.990;8.346;2022-09-01T00:54:06;16.40;99.90
5055;DHT22;13829;48.990;8.346;2022-09-01T00:56:39;16.30;99.90
5055;DHT22;13829;48.990;8.346;2022-09-01T00:59:09;16.30;99.90
5055;DHT22;13829;48.990;8.346;2022-09-01T01:01:38;16.10;99.90
5055;DHT22;13829;48.990;8.346;2022-09-01T01:04:07;16.20;99.90
5055;DHT22;13829;48.990;8.346;2022-09-01T01:06:40;16.10;99.90
5055;DHT22;13829;48.990;8.346;2022-09-01T01:09:10;16.20;99.90
5055;DHT22;13829;48.990;8.346;2022-09-01T01:11:38;16.20;99.90
5055;DHT22;13829;48.990;8.346;2022-09-01T01:14:09;16.10;99.90
5055;DHT22;13829;48.990;8.346;2022-09-01T01:16:39;16.10;99.90
5055;DHT22;13829;48.990;8.346;2022-09-01T01:19:10;16.30;99.90
5055;DHT22;13829;48.990;8.346;2022-09-01T01:22:01;16.20;99.90
5055;DHT22;13829;48.990;8.346;2022-09-01T01:24:49;16.20;99.90
5055;DHT22;13829;48.990;8.346;2022-09-01T01:27:16;16.10;99.90
5055;DHT22;13829;48.990;8.346;2022-09-01T01:29:46;16.10;99.90
5055;DHT22;13829;48.990;8.346;2022-09-01T01:32:16;16.10;99.90
5055;DHT22;13829;48.990;8.346;2022-09-01T01:34:43;16.10;99.90
5055;DHT22;13829;48.990;8.346;2022-09-01T01:37:12;16.30;99.90
5055;DHT22;13829;48.990;8.346;2022-09-01T01:39:40;16.30;99.90
5055;DHT22;13829;48.990;8.346;2022-09-01T01:42:10;16.30;99.90
5055;DHT22;13829;48.990;8.346;2022-09-01T01:44:38;16.50;99.90
5055;DHT22;13829;48.990;8.346;2022-09-01T01:47:10;16.30;99.90
5055;DHT22;13829;48.990;8.346;2022-09-01T01:49:39;16.20;99.90
5055;DHT22;13829;48.990;8.346;2022-09-01T01:52:10;16.10;99.90
5055;DHT22;13829;48.990;8.346;2022-09-01T01:54:40;16.20;99.90
5055;DHT22;13829;48.990;8.346;2022-09-01T01:57:09;16.10;99.90
5055;DHT22;13829;48.990;8.346;2022-09-01T01:59:36;16.00;99.90
5055;DHT22;13829;48.990;8.346;2022-09-01T02:02:05;15.80;99.90
5055;DHT22;13829;48.990;8.346;2022-09-01T02:04:35;15.90;99.90
5055;DHT22;13829;48.990;8.346;2022-09-01T02:07:04;15.80;99.90
5055;DHT22;13829;48.990;8.346;2022-09-01T02:09:36;15.80;99.90
5055;DHT22;13829;48.990;8.346;2022-09-01T02:12:06;15.80;99.90
5055;DHT22;13829;48.990;8.346;2022-09-01T02:14:35;15.80;99.90
5055;DHT22;13829;48.990;8.346;2022-09-01T02:17:03;15.80;99.90
5055;DHT22;13829;48.990;8.346;2022-09-01T02:19:31;15.70;99.90
5055;DHT22;13829;48.990;8.346;2022-09-01T02:22:07;15.90;99.90
5055;DHT22;13829;48.990;8.346;2022-09-01T02:24:36;15.70;99.90
5055;DHT22;13829;48.990;8.346;2022-09-01T02:27:03;15.70;99.90
5055;DHT22;13829;48.990;8.346;2022-09-01T02:29:30;15.70;99.90
5055;DHT22;13829;48.990;8.346;2022-09-01T02:31:59;15.70;99.90
5055;DHT22;13829;48.990;8.346;2022-09-01T02:34:26;15.70;99.90
5055;DHT22;13829;48.990;8.346;2022-09-01T02:36:55;15.70;99.90
5055;DHT22;13829;48.990;8.346;2022-09-01T02:39:26;15.60;99.90
5055;DHT22;13829;48.990;8.346;2022-09-01T02:41:57;15.70;99.90
5055;DHT22;13829;48.990;8.346;2022-09-01T02:44:26;15.80;99.90
5055;DHT22;13829;48.990;8.346;2022-09-01T02:46:53;15.70;99.90
5055;DHT22;13829;48.990;8.346;2022-09-01T02:49:22;15.90;99.90
5055;DHT22;13829;48.990;8.346;2022-09-01T02:51:53;15.80;99.90
5055;DHT22;13829;48.990;8.346;2022-09-01T02:54:26;15.70;99.90
5055;DHT22;13829;48.990;8.346;2022-09-01T02:56:54;15.80;99.90
5055;DHT22;13829;48.990;8.346;2022-09-01T02:59:23;15.90;99.90
5055;DHT22;13829;48.990;8.346;2022-09-01T03:01:53;15.90;99.90
5055;DHT22;13829;48.990;8.346;2022-09-01T03:04:23;15.80;99.90
5055;DHT22;13829;48.990;8.346;2022-09-01T03:06:51;15.70;99.90
5055;DHT22;13829;48.990;8.346;2022-09-01T03:09:19;15.70;99.90
5055;DHT22;13829;48.990;8.346;2022-09-01T03:11:51;15.70;99.90
5055;DHT22;13829;48.990;8.346;2022-09-01T03:14:20;15.70;99.90
5055;DHT22;13829;48.990;8.346;2022-09-01T03:16:48;15.60;99.90
5055;DHT22;13829;48.990;8.346;2022-09-01T03:19:16;15.50;99.90
5055;DHT22;13829;48.990;8.346;2022-09-01T03:21:45;15.60;99.90
5055;DHT22;13829;48.990;8.346;2022-09-01T03:24:14;15.70;99.90
5055;DHT22;13829;48.990;8.346;2022-09-01T03:26:44;15.60;99.90
5055;DHT22;13829;48.990;8.346;2022-09-01T03:29:14;15.60;99.90
5055;DHT22;13829;48.990;8.346;2022-09-01T03:31:41;15.50;99.90
5055;DHT22;13829;48.990;8.346;2022-09-01T03:34:08;15.50;99.90
5055;DHT22;13829;48.990;8.346;2022-09-01T03:36:37;15.50;99.90
5055;DHT22;13829;48.990;8.346;2022-09-01T03:39:16;15.50;99.90
5055;DHT22;13829;48.990;8.346;2022-09-01T03:41:44;15.60;99.90
5055;DHT22;13829;48.990;8.346;2022-09-01T03:44:11;15.60;99.90
5055;DHT22;13829;48.990;8.346;2022-09-01T03:46:39;15.60;99.90
5055;DHT22;13829;48.990;8.346;2022-09-01T03:49:07;15.60;99.90
5055;DHT22;13829;48.990;8.346;2022-09-01T03:51:37;15.50;99.90
5055;DHT22;13829;48.990;8.346;2022-09-01T03:54:05;15.60;99.90
5055;DHT22;13829;48.990;8.346;2022-09-01T03:56:34;15.60;99.90
5055;DHT22;13829;48.990;8.346;2022-09-01T03:59:06;15.50;99.90
5055;DHT22;13829;48.990;8.346;2022-09-01T04:01:33;15.50;99.90
5055;DHT22;13829;48.990;8.346;2022-09-01T04:04:02;15.40;99.90
5055;DHT22;13829;48.990;8.346;2022-09-01T04:06:32;15.50;99.90
5055;DHT22;13829;48.990;8.346;2022-09-01T04:08:59;15.40;99.90
5055;DHT22;13829;48.990;8.346;2022-09-01T04:11:28;15.40;99.90
5055;DHT22;13829;48.990;8.346;2022-09-01T04:13:58;15.40;99.90
5055;DHT22;13829;48.990;8.346;2022-09-01T04:16:27;15.40;99.90
5055;DHT22;13829;48.990;8.346;2022-09-01T04:19:15;15.30;99.90
5055;DHT22;13829;48.990;8.346;2022-09-01T04:21:46;15.30;99.90
5055;DHT22;13829;48.990;8.346;2022-09-01T04:24:15;15.30;99.90
5055;DHT22;13829;48.990;8.346;2022-09-01T04:26:43;15.10;99.90
5055;DHT22;13829;48.990;8.346;2022-09-01T04:29:14;15.40;99.90
5055;DHT22;13829;48.990;8.346;2022-09-01T04:31:44;15.40;99.90
5055;DHT22;13829;48.990;8.346;2022-09-01T04:34:13;15.40;99.90
5055;DHT22;13829;48.990;8.346;2022-09-01T04:36:42;15.40;99.90
5055;DHT22;13829;48.990;8.346;2022-09-01T04:39:10;15.40;99.90
5055;DHT22;13829;48.990;8.346;2022-09-01T04:41:39;15.40;99.90
5055;DHT22;13829;48.990;8.346;2022-09-01T04:44:11;15.40;99.90
5055;DHT22;13829;48.990;8.346;2022-09-01T04:46:45;15.50;99.90
5055;DHT22;13829;48.990;8.346;2022-09-01T04:49:18;15.30;99.90
5055;DHT22;13829;48.990;8.346;2022-09-01T04:51:51;15.40;99.90
5055;DHT22;13829;48.990;8.346;2022-09-01T04:54:19;15.40;99.90
5055;DHT22;13829;48.990;8.346;2022-09-01T04:56:48;15.30;99.90
5055;DHT22;13829;48.990;8.346;2022-09-01T04:59:18;15.30;99.90
5055;DHT22;13829;48.990;8.346;2022-09-01T05:01:49;15.20;99.90
5055;DHT22;13829;48.990;8.346;2022-09-01T05:04:21;15.20;99.90
5055;DHT22;13829;48.990;8.346;2022-09-01T05:06:53;15.20;99.90
5055;DHT22;13829;48.990;8.346;2022-09-01T05:09:26;15.30;99.90
5055;DHT22;13829;48.990;8.346;2022-09-01T05:11:55;15.30;99.90
5055;DHT22;13829;48.990;8.346;2022-09-01T05:14:26;15.30;99.90
5055;DHT22;13829;48.990;8.346;2022-09-01T05:16:57;15.20;99.90
5055;DHT22;13829;48.990;8.346;2022-09-01T05:19:24;15.30;99.90
5055;DHT22;13829;48.990;8.346;2022-09-01T05:21:54;15.20;99.90
5055;DHT22;13829;48.990;8.346;2022-09-01T05:24:22;15.30;99.90
5055;DHT22;13829;48.990;8.346;2022-09-01T05:26:51;15.40;99.90
5055;DHT22;13829;48.990;8.346;2022-09-01T05:29:18;15.50;99.90
5055;DHT22;13829;48.990;8.346;2022-09-01T05:31:46;15.50;99.90
5055;DHT22;13829;48.990;8.346;2022-09-01T05:34:15;15.40;99.90
5055;DHT22;13829;48.990;8.346;2022-09-01T05:36:46;15.40;99.90
5055;DHT22;13829;48.990;8.346;2022-09-01T05:39:16;15.50;99.90
5055;DHT22;13829;48.990;8.346;2022-09-01T05:41:43;15.50;99.90
5055;DHT22;13829;48.990;8.346;2022-09-01T05:44:12;15.50;99.90
5055;DHT22;13829;48.990;8.346;2022-09-01T05:46:41;15.60;99.90
5055;DHT22;13829;48.990;8.346;2022-09-01T05:49:10;15.60;99.90
5055;DHT22;13829;48.990;8.346;2022-09-01T05:51:41;15.70;99.90
5055;DHT22;13829;48.990;8.346;2022-09-01T05:54:11;15.80;99.90
5055;DHT22;13829;48.990;8.346;2022-09-01T05:56:38;15.90;99.90
5055;DHT22;13829;48.990;8.346;2022-09-01T05:59:07;16.00;99.90
5055;DHT22;13829;48.990;8.346;2022-09-01T06:01:34;16.00;99.90
5055;DHT22;13829;48.990;8.346;2022-09-01T06:04:04;16.00;99.90
5055;DHT22;13829;48.990;8.346;2022-09-01T06:06:36;16.10;99.90
5055;DHT22;13829;48.990;8.346;2022-09-01T06:09:08;16.20;99.90
5055;DHT22;13829;48.990;8.346;2022-09-01T06:11:35;16.30;99.90
5055;DHT22;13829;48.990;8.346;2022-09-01T06:14:02;16.30;99.90
5055;DHT22;13829;48.990;8.346;2022-09-01T06:16:30;16.50;99.90
5055;DHT22;13829;48.990;8.346;2022-09-01T06:18:58;16.70;99.90
5055;DHT22;13829;48.990;8.346;2022-09-01T06:21:25;16.40;99.90
5055;DHT22;13829;48.990;8.346;2022-09-01T06:23:55;16.60;99.90
5055;DHT22;13829;48.990;8.346;2022-09-01T06:26:26;16.60;99.90
5055;DHT22;13829;48.990;8.346;2022-09-01T06:28:57;16.70;99.90
5055;DHT22;13829;48.990;8.346;2022-09-01T06:31:29;16.80;99.90
5055;DHT22;13829;48.990;8.346;2022-09-01T06:34:01;16.90;99.90
5055;DHT22;13829;48.990;8.346;2022-09-01T06:36:30;17.00;99.90
5055;DHT22;13829;48.990;8.346;2022-09-01T06:38:58;17.10;99.90
5055;DHT22;13829;48.990;8.346;2022-09-01T06:41:28;17.20;99.90
5055;DHT22;13829;48.990;8.346;2022-09-01T06:43:57;17.20;99.90
5055;DHT22;13829;48.990;8.346;2022-09-01T06:46:26;17.30;99.90
5055;DHT22;13829;48.990;8.346;2022-09-01T06:48:54;17.40;99.90
5055;DHT22;13829;48.990;8.346;2022-09-01T06:51:24;18.00;99.90
5055;DHT22;13829;48.990;8.346;2022-09-01T06:53:54;18.90;99.90
5055;DHT22;13829;48.990;8.346;2022-09-01T06:56:24;20.20;99.90
5055;DHT22;13829;48.990;8.346;2022-09-01T06:58:56;21.30;99.90
5055;DHT22;13829;48.990;8.346;2022-09-01T07:01:24;22.10;99.90
5055;DHT22;13829;48.990;8.346;2022-09-01T07:03:53;22.70;99.90
5055;DHT22;13829;48.990;8.346;2022-09-01T07:06:22;23.30;99.90
5055;DHT22;13829;48.990;8.346;2022-09-01T07:08:52;23.70;99.90
5055;DHT22;13829;48.990;8.346;2022-09-01T07:11:22;24.30;99.90
5055;DHT22;13829;48.990;8.346;2022-09-01T07:13:55;24.60;98.70
5055;DHT22;13829;48.990;8.346;2022-09-01T07:16:27;24.40;98.20
5055;DHT22;13829;48.990;8.346;2022-09-01T07:18:57;24.80;97.40
5055;DHT22;13829;48.990;8.346;2022-09-01T07:21:27;25.30;97.10
5055;DHT22;13829;48.990;8.346;2022-09-01T07:23:56;25.50;95.90
5055;DHT22;13829;48.990;8.346;2022-09-01T07:26:26;25.90;95.20
5055;DHT22;13829;48.990;8.346;2022-09-01T07:28:56;26.20;94.10
5055;DHT22;13829;48.990;8.346;2022-09-01T07:31:25;26.20;93.70
5055;DHT22;13829;48.990;8.346;2022-09-01T07:33:58;26.20;93.30
5055;DHT22;13829;48.990;8.346;2022-09-01T07:36:28;26.20;93.00
5055;DHT22;13829;48.990;8.346;2022-09-01T07:38:56;26.70;93.10
5055;DHT22;13829;48.990;8.346;2022-09-01T07:41:25;26.70;92.40
5055;DHT22;13829;48.990;8.346;2022-09-01T07:43:55;26.70;91.90
5055;DHT22;13829;48.990;8.346;2022-09-01T07:46:23;26.50;92.00
5055;DHT22;13829;48.990;8.346;2022-09-01T07:48:52;26.30;92.10
5055;DHT22;13829;48.990;8.346;2022-09-01T07:51:21;26.10;92.90
5055;DHT22;13829;48.990;8.346;2022-09-01T07:53:49;26.60;91.80
5055;DHT22;13829;48.990;8.346;2022-09-01T07:56:18;26.40;91.70
5055;DHT22;13829;48.990;8.346;2022-09-01T07:58:49;25.70;92.70
5055;DHT22;13829;48.990;8.346;2022-09-01T08:01:21;26.40;92.30
5055;DHT22;13829;48.990;8.346;2022-09-01T08:03:53;27.20;91.40
5055;DHT22;13829;48.990;8.346;2022-09-01T08:06:24;27.00;91.00
5055;DHT22;13829;48.990;8.346;2022-09-01T08:08:54;26.80;91.20
5055;DHT22;13829;48.990;8.346;2022-09-01T08:11:24;26.60;91.20
5055;DHT22;13829;48.990;8.346;2022-09-01T08:13:54;27.20;90.20
5055;DHT22;13829;48.990;8.346;2022-09-01T08:16:24;26.60;91.00
5055;DHT22;13829;48.990;8.346;2022-09-01T08:18:52;26.40;91.30
5055;DHT22;13829;48.990;8.346;2022-09-01T08:21:20;26.60;90.60
5055;DHT22;13829;48.990;8.346;2022-09-01T08:23:49;26.10;91.40
5055;DHT22;13829;48.990;8.346;2022-09-01T08:26:18;25.60;92.10
5055;DHT22;13829;48.990;8.346;2022-09-01T08:28:46;25.60;92.80
5055;DHT22;13829;48.990;8.346;2022-09-01T08:31:15;25.00;93.20
5055;DHT22;13829;48.990;8.346;2022-09-01T08:33:46;25.00;93.40
5055;DHT22;13829;48.990;8.346;2022-09-01T08:36:15;25.00;93.40
5055;DHT22;13829;48.990;8.346;2022-09-01T08:38:43;24.60;93.80
5055;DHT22;13829;48.990;8.346;2022-09-01T08:41:15;24.50;94.70
5055;DHT22;13829;48.990;8.346;2022-09-01T08:43:55;24.30;94.70
5055;DHT22;13829;48.990;8.346;2022-09-01T08:46:32;24.10;95.30
5055;DHT22;13829;48.990;8.346;2022-09-01T08:49:06;24.10;96.00
5055;DHT22;13829;48.990;8.346;2022-09-01T08:51:42;24.20;95.40
5055;DHT22;13829;48.990;8.346;2022-09-01T08:54:21;24.00;95.80
5055;DHT22;13829;48.990;8.346;2022-09-01T08:56:53;23.90;96.20
5055;DHT22;13829;48.990;8.346;2022-09-01T08:59:25;23.90;95.90
5055;DHT22;13829;48.990;8.346;2022-09-01T09:01:59;23.90;96.10
5055;DHT22;13829;48.990;8.346;2022-09-01T09:04:49;23.70;96.60
5055;DHT22;13829;48.990;8.346;2022-09-01T09:07:37;23.50;97.10
5055;DHT22;13829;48.990;8.346;2022-09-01T09:10:17;23.90;98.00
5055;DHT22;13829;48.990;8.346;2022-09-01T09:13:00;24.10;97.30
5055;DHT22;13829;48.990;8.346;2022-09-01T09:15:41;24.30;95.80
5055;DHT22;13829;48.990;8.346;2022-09-01T09:18:26;23.90;96.90
5055;DHT22;13829;48.990;8.346;2022-09-01T09:21:06;23.90;96.30
5055;DHT22;13829;48.990;8.346;2022-09-01T09:23:41;23.60;96.70
5055;DHT22;13829;48.990;8.346;2022-09-01T09:26:10;23.80;98.00
5055;DHT22;13829;48.990;8.346;2022-09-01T09:28:38;24.10;96.70
5055;DHT22;13829;48.990;8.346;2022-09-01T09:31:28;23.90;96.20
5055;DHT22;13829;48.990;8.346;2022-09-01T09:33:58;23.70;96.30
5055;DHT22;13829;48.990;8.346;2022-09-01T09:36:32;23.50;95.90
5055;DHT22;13829;48.990;8.346;2022-09-01T09:39:04;23.60;95.40
5055;DHT22;13829;48.990;8.346;2022-09-01T09:41:34;23.70;95.30
5055;DHT22;13829;48.990;8.346;2022-09-01T09:44:14;23.60;95.40
5055;DHT22;13829;48.990;8.346;2022-09-01T09:46:46;23.30;94.80
5055;DHT22;13829;48.990;8.346;2022-09-01T09:49:16;23.20;95.30
5055;DHT22;13829;48.990;8.346;2022-09-01T09:51:49;23.40;96.20
5055;DHT22;13829;48.990;8.346;2022-09-01T09:54:21;23.40;94.90
5055;DHT22;13829;48.990;8.346;2022-09-01T09:57:03;23.30;94.50
5055;DHT22;13829;48.990;8.346;2022-09-01T09:59:39;23.40;95.60
5055;DHT22;13829;48.990;8.346;2022-09-01T10:02:24;23.50;94.10
5055;DHT22;13829;48.990;8.346;2022-09-01T10:04:56;23.00;94.10
5055;DHT22;13829;48.990;8.346;2022-09-01T10:07:29;22.90;94.60
5055;DHT22;13829;48.990;8.346;2022-09-01T10:10:00;22.70;94.90
5055;DHT22;13829;48.990;8.346;2022-09-01T10:12:30;22.80;95.00
5055;DHT22;13829;48.990;8.346;2022-09-01T10:15:02;22.80;94.50
5055;DHT22;13829;48.990;8.346;2022-09-01T10:17:35;22.60;94.90
5055;DHT22;13829;48.990;8.346;2022-09-01T10:20:10;22.90;96.70
5055;DHT22;13829;48.990;8.346;2022-09-01T10:22:43;23.40;95.50
5055;DHT22;13829;48.990;8.346;2022-09-01T10:25:14;23.50;94.40
5055;DHT22;13829;48.990;8.346;2022-09-01T10:27:48;23.80;95.00
5055;DHT22;13829;48.990;8.346;2022-09-01T10:30:20;24.00;94.50
5055;DHT22;13829;48.990;8.346;2022-09-01T10:32:49;23.90;94.60
5055;DHT22;13829;48.990;8.346;2022-09-01T10:35:22;23.50;94.20
5055;DHT22;13829;48.990;8.346;2022-09-01T10:37:53;23.50;95.10
5055;DHT22;13829;48.990;8.346;2022-09-01T10:40:37;23.50;94.90
5055;DHT22;13829;48.990;8.346;2022-09-01T10:43:25;23.70;95.20
5055;DHT22;13829;48.990;8.346;2022-09-01T10:45:58;23.80;94.90
5055;DHT22;13829;48.990;8.346;2022-09-01T10:48:27;23.70;94.90
5055;DHT22;13829;48.990;8.346;2022-09-01T10:54:55;23.70;94.70
5055;DHT22;13829;48.990;8.346;2022-09-01T10:57:43;23.70;94.10
5055;DHT22;13829;48.990;8.346;2022-09-01T11:00:44;23.70;94.80
5055;DHT22;13829;48.990;8.346;2022-09-01T11:03:49;23.90;94.40
5055;DHT22;13829;48.990;8.346;2022-09-01T11:06:59;24.10;93.70
5055;DHT22;13829;48.990;8.346;2022-09-01T11:09:34;24.20;94.20
5055;DHT22;13829;48.990;8.346;2022-09-01T11:12:23;24.30;93.80
5055;DHT22;13829;48.990;8.346;2022-09-01T11:15:35;24.40;92.60
5055;DHT22;13829;48.990;8.346;2022-09-01T11:18:09;24.40;92.90
5055;DHT22;13829;48.990;8.346;2022-09-01T11:20:40;24.30;93.10
5055;DHT22;13829;48.990;8.346;2022-09-01T11:23:12;24.40;93.30
5055;DHT22;13829;48.990;8.346;2022-09-01T11:25:50;24.30;92.30
5055;DHT22;13829;48.990;8.346;2022-09-01T11:28:42;24.00;92.30
5055;DHT22;13829;48.990;8.346;2022-09-01T11:31:28;23.90;92.80
5055;DHT22;13829;48.990;8.346;2022-09-01T11:34:16;23.90;93.70
5055;DHT22;13829;48.990;8.346;2022-09-01T11:36:54;23.90;93.50
5055;DHT22;13829;48.990;8.346;2022-09-01T11:39:32;24.00;93.50
5055;DHT22;13829;48.990;8.346;2022-09-01T11:42:10;24.00;93.30
5055;DHT22;13829;48.990;8.346;2022-09-01T11:44:48;23.90;92.60
5055;DHT22;13829;48.990;8.346;2022-09-01T11:47:22;24.00;93.00
5055;DHT22;13829;48.990;8.346;2022-09-01T11:49:54;23.80;92.20
5055;DHT22;13829;48.990;8.346;2022-09-01T11:52:25;23.70;92.90
5055;DHT22;13829;48.990;8.346;2022-09-01T11:54:55;23.80;93.90
5055;DHT22;13829;48.990;8.346;2022-09-01T11:57:27;24.00;94.00
5055;DHT22;13829;48.990;8.346;2022-09-01T11:59:59;24.10;92.60
5055;DHT22;13829;48.990;8.346;2022-09-01T12:02:29;24.00;93.00
5055;DHT22;13829;48.990;8.346;2022-09-01T12:04:59;24.10;93.00
5055;DHT22;13829;48.990;8.346;2022-09-01T12:07:41;24.30;92.40
5055;DHT22;13829;48.990;8.346;2022-09-01T12:10:17;24.50;92.30
5055;DHT22;13829;48.990;8.346;2022-09-01T12:12:47;24.30;92.10
5055;DHT22;13829;48.990;8.346;2022-09-01T12:15:21;24.10;92.60
5055;DHT22;13829;48.990;8.346;2022-09-01T12:17:52;23.90;92.60
5055;DHT22;13829;48.990;8.346;2022-09-01T12:20:35;23.80;93.20
5055;DHT22;13829;48.990;8.346;2022-09-01T12:23:15;23.60;92.90
5055;DHT22;13829;48.990;8.346;2022-09-01T12:25:48;23.50;92.30
5055;DHT22;13829;48.990;8.346;2022-09-01T12:28:17;23.40;92.40
5055;DHT22;13829;48.990;8.346;2022-09-01T12:30:44;23.30;92.10
5055;DHT22;13829;48.990;8.346;2022-09-01T12:33:11;23.20;92.30
5055;DHT22;13829;48.990;8.346;2022-09-01T12:35:39;23.30;92.80
5055;DHT22;13829;48.990;8.346;2022-09-01T12:38:27;23.40;92.00
5055;DHT22;13829;48.990;8.346;2022-09-01T12:40:56;23.30;92.90
5055;DHT22;13829;48.990;8.346;2022-09-01T12:43:31;23.40;93.10
5055;DHT22;13829;48.990;8.346;2022-09-01T12:46:01;23.50;91.70
5055;DHT22;13829;48.990;8.346;2022-09-01T12:48:31;23.40;92.20
5055;DHT22;13829;48.990;8.346;2022-09-01T12:51:00;23.50;91.10
5055;DHT22;13829;48.990;8.346;2022-09-01T12:53:31;23.60;91.00
5055;DHT22;13829;48.990;8.346;2022-09-01T12:56:15;23.60;89.50
5055;DHT22;13829;48.990;8.346;2022-09-01T12:58:48;23.70;90.80
5055;DHT22;13829;48.990;8.346;2022-09-01T13:01:27;23.80;91.60
5055;DHT22;13829;48.990;8.346;2022-09-01T13:06:51;23.70;90.70
5055;DHT22;13829;48.990;8.346;2022-09-01T13:09:19;23.70;91.10
5055;DHT22;13829;48.990;8.346;2022-09-01T13:11:46;23.80;91.40
5055;DHT22;13829;48.990;8.346;2022-09-01T13:14:15;23.90;91.90
5055;DHT22;13829;48.990;8.346;2022-09-01T13:16:44;23.90;90.20
5055;DHT22;13829;48.990;8.346;2022-09-01T13:19:11;23.80;89.60
5055;DHT22;13829;48.990;8.346;2022-09-01T13:21:38;23.70;90.10
5055;DHT22;13829;48.990;8.346;2022-09-01T13:24:06;23.60;90.10
5055;DHT22;13829;48.990;8.346;2022-09-01T13:26:34;23.70;89.60
5055;DHT22;13829;48.990;8.346;2022-09-01T13:29:01;23.80;90.40
5055;DHT22;13829;48.990;8.346;2022-09-01T13:31:29;23.80;90.20
5055;DHT22;13829;48.990;8.346;2022-09-01T13:33:57;23.80;90.70
5055;DHT22;13829;48.990;8.346;2022-09-01T13:36:25;23.90;90.60
5055;DHT22;13829;48.990;8.346;2022-09-01T13:38:51;23.80;90.10
5055;DHT22;13829;48.990;8.346;2022-09-01T13:41:18;23.70;90.90
5055;DHT22;13829;48.990;8.346;2022-09-01T13:43:45;23.90;90.60
5055;DHT22;13829;48.990;8.346;2022-09-01T13:46:12;23.90;89.60
5055;DHT22;13829;48.990;8.346;2022-09-01T13:48:41;24.00;89.80
5055;DHT22;13829;48.990;8.346;2022-09-01T13:51:09;24.00;90.00
5055;DHT22;13829;48.990;8.346;2022-09-01T13:53:36;24.10;90.20
5055;DHT22;13829;48.990;8.346;2022-09-01T13:56:03;24.20;90.60
5055;DHT22;13829;48.990;8.346;2022-09-01T13:58:30;24.20;90.90
5055;DHT22;13829;48.990;8.346;2022-09-01T14:00:57;24.20;89.50
5055;DHT22;13829;48.990;8.346;2022-09-01T14:03:24;24.30;88.40
5055;DHT22;13829;48.990;8.346;2022-09-01T14:05:53;24.40;88.00
5055;DHT22;13829;48.990;8.346;2022-09-01T14:08:20;24.30;88.40
5055;DHT22;13829;48.990;8.346;2022-09-01T14:10:49;24.40;88.50
5055;DHT22;13829;48.990;8.346;2022-09-01T14:13:18;24.30;88.20
5055;DHT22;13829;48.990;8.346;2022-09-01T14:15:47;24.30;88.50
5055;DHT22;13829;48.990;8.346;2022-09-01T14:18:15;24.10;87.30
5055;DHT22;13829;48.990;8.346;2022-09-01T14:20:45;24.30;87.10
5055;DHT22;13829;48.990;8.346;2022-09-01T14:23:18;24.30;87.60
5055;DHT22;13829;48.990;8.346;2022-09-01T14:25:47;24.30;87.20
5055;DHT22;13829;48.990;8.346;2022-09-01T14:28:17;24.20;87.90
5055;DHT22;13829;48.990;8.346;2022-09-01T14:30:45;24.10;88.80
5055;DHT22;13829;48.990;8.346;2022-09-01T14:33:13;24.20;88.60
5055;DHT22;13829;48.990;8.346;2022-09-01T14:35:42;24.20;86.80
5055;DHT22;13829;48.990;8.346;2022-09-01T14:38:11;24.20;87.90
5055;DHT22;13829;48.990;8.346;2022-09-01T14:40:41;24.30;88.30
5055;DHT22;13829;48.990;8.346;2022-09-01T14:43:12;24.30;89.00
5055;DHT22;13829;48.990;8.346;2022-09-01T14:45:40;24.40;87.90
5055;DHT22;13829;48.990;8.346;2022-09-01T14:48:10;24.30;87.90
5055;DHT22;13829;48.990;8.346;2022-09-01T14:50:40;24.20;88.10
5055;DHT22;13829;48.990;8.346;2022-09-01T14:53:09;24.10;87.70
5055;DHT22;13829;48.990;8.346;2022-09-01T14:55:36;24.10;87.70
5055;DHT22;13829;48.990;8.346;2022-09-01T14:58:05;24.00;87.40
5055;DHT22;13829;48.990;8.346;2022-09-01T15:00:32;24.00;85.40
5055;DHT22;13829;48.990;8.346;2022-09-01T15:03:02;24.00;86.40
5055;DHT22;13829;48.990;8.346;2022-09-01T15:05:30;24.10;85.60
5055;DHT22;13829;48.990;8.346;2022-09-01T15:07:57;24.10;84.80
5055;DHT22;13829;48.990;8.346;2022-09-01T15:10:25;24.20;85.90
5055;DHT22;13829;48.990;8.346;2022-09-01T15:12:55;24.30;86.60
5055;DHT22;13829;48.990;8.346;2022-09-01T15:15:25;24.30;86.00
5055;DHT22;13829;48.990;8.346;2022-09-01T15:17:54;24.30;87.30
5055;DHT22;13829;48.990;8.346;2022-09-01T15:20:22;24.30;87.70
5055;DHT22;13829;48.990;8.346;2022-09-01T15:23:08;24.30;87.30
5055;DHT22;13829;48.990;8.346;2022-09-01T15:25:35;24.20;87.50
5055;DHT22;13829;48.990;8.346;2022-09-01T15:28:02;24.20;86.70
5055;DHT22;13829;48.990;8.346;2022-09-01T15:30:32;24.30;86.70
5055;DHT22;13829;48.990;8.346;2022-09-01T15:33:00;24.30;86.50
5055;DHT22;13829;48.990;8.346;2022-09-01T15:35:27;24.50;87.60
5055;DHT22;13829;48.990;8.346;2022-09-01T15:37:55;24.50;87.00
5055;DHT22;13829;48.990;8.346;2022-09-01T15:40:24;24.50;87.10
5055;DHT22;13829;48.990;8.346;2022-09-01T15:42:51;24.40;86.60
5055;DHT22;13829;48.990;8.346;2022-09-01T15:45:21;24.30;86.80
5055;DHT22;13829;48.990;8.346;2022-09-01T15:47:51;24.30;86.50
5055;DHT22;13829;48.990;8.346;2022-09-01T15:50:21;24.10;86.70
5055;DHT22;13829;48.990;8.346;2022-09-01T15:52:51;24.00;86.30
5055;DHT22;13829;48.990;8.346;2022-09-01T15:55:22;23.90;86.80
5055;DHT22;13829;48.990;8.346;2022-09-01T15:57:51;24.00;86.60
5055;DHT22;13829;48.990;8.346;2022-09-01T16:00:20;24.00;86.50
5055;DHT22;13829;48.990;8.346;2022-09-01T16:02:49;24.10;86.40
5055;DHT22;13829;48.990;8.346;2022-09-01T16:05:18;24.10;86.80
5055;DHT22;13829;48.990;8.346;2022-09-01T16:07:45;24.10;87.00
5055;DHT22;13829;48.990;8.346;2022-09-01T16:10:12;24.10;86.80
5055;DHT22;13829;48.990;8.346;2022-09-01T16:12:41;24.10;86.90
5055;DHT22;13829;48.990;8.346;2022-09-01T16:15:12;24.10;86.80
5055;DHT22;13829;48.990;8.346;2022-09-01T16:20:52;24.00;86.60